createdAt,value
2023-02-18T00:00:10.184Z,99211.55
2023-02-18T00:03:16.408Z,99213.17
2023-02-18T00:06:14.921Z,99215.39
2023-02-18T00:09:02.429Z,99231.14
2023-02-18T00:11:48.749Z,99241.11
2023-02-18T00:14:35.500Z,99245.86
2023-02-18T00:17:22.212Z,99254.12
2023-02-18T00:20:09.120Z,99253.80
2023-02-18T00:22:55.494Z,99261.61
2023-02-18T00:25:42.155Z,99265.33
2023-02-18T00:28:28.520Z,99270.30
2023-02-18T00:31:22.064Z,99272.52
2023-02-18T00:34:11.540Z,99268.77
2023-02-18T00:36:58.547Z,99280.33
2023-02-18T00:39:45.160Z,99270.88
2023-02-18T00:42:31.782Z,99273.38
2023-02-18T00:45:18.675Z,99287.96
2023-02-18T00:48:05.209Z,99285.16
2023-02-18T00:50:51.716Z,99273.95
2023-02-18T00:53:39.829Z,99286.53
2023-02-18T00:56:26.654Z,99285.69
2023-02-18T00:59:13.245Z,99282.83
2023-02-18T01:01:59.856Z,99270.14
2023-02-18T01:04:46.729Z,99290.84
2023-02-18T01:07:32.983Z,99287.11
2023-02-18T01:10:19.669Z,99291.13
2023-02-18T01:13:06.544Z,99291.30
2023-02-18T01:15:53.530Z,99287.86
2023-02-18T01:18:40.173Z,99284.89
2023-02-18T01:21:26.766Z,99283.04
2023-02-18T01:24:13.347Z,99286.20
2023-02-18T01:26:59.743Z,99298.45
2023-02-18T01:29:46.517Z,99288.04
2023-02-18T01:32:33.070Z,99292.80
2023-02-18T01:35:20.353Z,99289.23
2023-02-18T01:38:07.318Z,99280.20
2023-02-18T01:40:54.402Z,99287.55
2023-02-18T01:43:41.038Z,99280.00
2023-02-18T01:46:27.430Z,99283.09
2023-02-18T01:49:23.791Z,99284.64
2023-02-18T01:52:15.531Z,99272.89
2023-02-18T01:55:02.373Z,99278.43
2023-02-18T01:57:48.677Z,99276.30
2023-02-18T02:00:37.132Z,99277.13
2023-02-18T02:03:23.468Z,99268.95
2023-02-18T02:06:17.601Z,99274.17
2023-02-18T02:09:07.090Z,99265.16
2023-02-18T02:12:13.244Z,99269.95
2023-02-18T02:15:24.610Z,99267.52
2023-02-18T02:18:38.541Z,99263.23
2023-02-18T02:21:48.605Z,99262.31
2023-02-18T02:25:25.815Z,99262.44
2023-02-18T02:28:30.497Z,99258.63
2023-02-18T02:31:41.607Z,99264.08
2023-02-18T02:34:34.483Z,99260.49
2023-02-18T02:37:39.831Z,99267.05
2023-02-18T02:40:45.202Z,99274.36
2023-02-18T02:43:47.606Z,99269.84
2023-02-18T02:46:41.258Z,99271.02
2023-02-18T02:49:40.582Z,99273.46
2023-02-18T02:52:32.896Z,99276.66
2023-02-18T02:55:19.295Z,99277.63
2023-02-18T02:58:06.049Z,99273.95
2023-02-18T03:01:06.725Z,99288.23
2023-02-18T03:04:22.245Z,99290.83
2023-02-18T03:07:38.459Z,99297.41
2023-02-18T03:10:59.679Z,99302.45
2023-02-18T03:14:24.393Z,99308.95
2023-02-18T03:17:31.668Z,99299.23
2023-02-18T03:20:30.922Z,99304.15
2023-02-18T03:23:22.152Z,99305.16
2023-02-18T03:26:10.934Z,99319.06
2023-02-18T03:29:03.059Z,99312.66
2023-02-18T03:31:55.478Z,99319.97
2023-02-18T03:34:45.847Z,99318.59
2023-02-18T03:37:40.724Z,99323.85
2023-02-18T03:40:29.562Z,99326.02
2023-02-18T03:43:18.516Z,99328.49
2023-02-18T03:46:05.089Z,99322.80
2023-02-18T03:48:51.826Z,99326.98
2023-02-18T03:51:38.637Z,99323.18
2023-02-18T03:54:24.968Z,99330.44
2023-02-18T03:57:11.531Z,99331.19
2023-02-18T03:59:58.129Z,99325.90
2023-02-18T04:02:44.936Z,99318.02
2023-02-18T04:05:31.357Z,99325.73
2023-02-18T04:08:17.926Z,99335.16
2023-02-18T04:11:05.254Z,99334.93
2023-02-18T04:13:52.015Z,99337.08
2023-02-18T04:16:38.692Z,99338.61
2023-02-18T04:19:25.608Z,99345.70
2023-02-18T04:22:11.987Z,99336.10
2023-02-18T04:24:59.230Z,99340.61
2023-02-18T04:27:45.501Z,99336.80
2023-02-18T04:30:32.371Z,99344.17
2023-02-18T04:33:18.887Z,99347.96
2023-02-18T04:36:06.182Z,99338.66
2023-02-18T04:38:53.184Z,99351.23
2023-02-18T04:41:40.012Z,99347.45
2023-02-18T04:44:26.271Z,99345.17
2023-02-18T04:47:12.670Z,99356.85
2023-02-18T04:49:59.316Z,99363.65
2023-02-18T04:52:46.038Z,99349.80
2023-02-18T04:55:32.394Z,99362.92
2023-02-18T04:58:19.815Z,99361.51
2023-02-18T05:01:06.438Z,99365.75
2023-02-18T05:03:52.889Z,99375.63
2023-02-18T05:06:39.979Z,99381.23
2023-02-18T05:09:26.727Z,99374.64
2023-02-18T05:12:13.480Z,99372.66
2023-02-18T05:14:59.931Z,99376.23
2023-02-18T05:17:46.615Z,99380.29
2023-02-18T05:20:33.865Z,99378.33
2023-02-18T05:23:21.405Z,99378.98
2023-02-18T05:26:09.523Z,99377.26
2023-02-18T05:28:57.558Z,99386.29
2023-02-18T05:31:44.307Z,99388.84
2023-02-18T05:34:31.298Z,99396.84
2023-02-18T05:37:18.592Z,99404.15
2023-02-18T05:40:05.831Z,99398.75
2023-02-18T05:42:53.293Z,99402.02
2023-02-18T05:45:39.965Z,99404.64
2023-02-18T05:48:26.454Z,99406.20
2023-02-18T05:51:12.835Z,99407.08
2023-02-18T05:53:59.547Z,99411.00
2023-02-18T05:56:46.285Z,99410.95
2023-02-18T05:59:32.970Z,99419.41
2023-02-18T06:02:20.794Z,99416.82
2023-02-18T06:05:07.850Z,99413.70
2023-02-18T06:07:56.618Z,99414.40
2023-02-18T06:10:43.292Z,99414.86
2023-02-18T06:13:29.786Z,99416.35
2023-02-18T06:16:16.067Z,99409.27
2023-02-18T06:19:02.498Z,99425.22
2023-02-18T06:21:49.212Z,99427.73
2023-02-18T06:24:35.855Z,99432.17
2023-02-18T06:27:22.496Z,99446.69
2023-02-18T06:30:09.630Z,99439.57
2023-02-18T06:32:56.255Z,99455.44
2023-02-18T06:35:57.636Z,99452.85
2023-02-18T06:38:45.531Z,99457.16
2023-02-18T06:41:32.555Z,99459.38
2023-02-18T06:44:19.213Z,99461.54
2023-02-18T06:47:06.054Z,99467.17
2023-02-18T06:49:52.615Z,99478.92
2023-02-18T06:52:39.264Z,99461.82
2023-02-18T06:55:26.280Z,99476.39
2023-02-18T06:58:14.206Z,99470.06
2023-02-18T07:01:00.703Z,99472.73
2023-02-18T07:03:49.860Z,99475.80
2023-02-18T07:06:36.745Z,99474.95
2023-02-18T07:09:23.507Z,99467.84
2023-02-18T07:12:10.417Z,99472.30
2023-02-18T07:14:57.130Z,99468.52
2023-02-18T07:17:43.526Z,99475.92
2023-02-18T07:20:30.426Z,99474.15
2023-02-18T07:23:17.038Z,99487.00
2023-02-18T07:26:14.406Z,99482.20
2023-02-18T07:29:00.975Z,99478.23
2023-02-18T07:31:47.743Z,99482.57
2023-02-18T07:34:34.242Z,99486.00
2023-02-18T07:37:21.123Z,99483.27
2023-02-18T07:40:10.642Z,99486.71
2023-02-18T07:42:57.024Z,99484.22
2023-02-18T07:45:44.704Z,99492.77
2023-02-18T07:48:31.279Z,99485.94
2023-02-18T07:51:17.997Z,99486.02
2023-02-18T07:54:04.816Z,99491.18
2023-02-18T07:56:51.637Z,99494.75
2023-02-18T07:59:38.014Z,99497.48
2023-02-18T08:02:25.082Z,99499.59
2023-02-18T08:05:12.893Z,99499.51
2023-02-18T08:07:59.334Z,99496.59
2023-02-18T08:10:47.145Z,99510.30
2023-02-18T08:13:34.001Z,99507.98
2023-02-18T08:16:21.463Z,99492.43
2023-02-18T08:19:08.713Z,99509.00
2023-02-18T08:21:55.056Z,99499.63
2023-02-18T08:24:41.495Z,99510.08
2023-02-18T08:27:28.279Z,99513.96
2023-02-18T08:30:15.695Z,99506.42
2023-02-18T08:33:02.215Z,99507.09
2023-02-18T08:35:50.727Z,99507.23
2023-02-18T08:38:37.485Z,99506.46
2023-02-18T08:41:24.092Z,99504.91
2023-02-18T08:44:10.729Z,99502.37
2023-02-18T08:46:57.378Z,99501.71
2023-02-18T08:49:44.286Z,99509.77
2023-02-18T08:52:31.119Z,99521.31
2023-02-18T08:55:20.767Z,99515.66
2023-02-18T08:58:07.133Z,99521.63
2023-02-18T09:00:53.871Z,99526.11
2023-02-18T09:03:41.562Z,99526.16
2023-02-18T09:06:27.873Z,99519.80
2023-02-18T09:09:14.276Z,99524.27
2023-02-18T09:12:00.993Z,99534.42
2023-02-18T09:14:48.751Z,99532.98
2023-02-18T09:17:35.244Z,99527.03
2023-02-18T09:20:21.812Z,99534.83
2023-02-18T09:23:08.453Z,99548.40
2023-02-18T09:25:55.084Z,99534.75
2023-02-18T09:28:41.843Z,99540.55
2023-02-18T09:31:28.809Z,99547.37
2023-02-18T09:34:15.385Z,99534.63
2023-02-18T09:37:02.566Z,99545.14
2023-02-18T09:39:49.074Z,99548.21
2023-02-18T09:42:35.752Z,99563.39
2023-02-18T09:45:22.253Z,99554.55
2023-02-18T09:48:09.632Z,99560.41
2023-02-18T09:50:56.393Z,99554.89
2023-02-18T09:53:47.270Z,99558.41
2023-02-18T09:56:39.638Z,99562.89
2023-02-18T09:59:27.516Z,99571.67
2023-02-18T10:02:17.559Z,99571.81
2023-02-18T10:05:06.054Z,99564.48
2023-02-18T10:07:56.032Z,99570.05
2023-02-18T10:10:45.904Z,99570.31
2023-02-18T10:13:34.665Z,99574.45
2023-02-18T10:16:23.591Z,99571.45
2023-02-18T10:19:32.397Z,99569.45
2023-02-18T10:22:20.822Z,99570.36
2023-02-18T10:25:08.281Z,99569.83
2023-02-18T10:27:54.551Z,99573.08
2023-02-18T10:30:46.306Z,99572.55
2023-02-18T10:33:46.576Z,99558.18
2023-02-18T10:36:42.835Z,99569.10
2023-02-18T10:39:49.687Z,99564.98
2023-02-18T10:42:46.775Z,99568.09
2023-02-18T10:45:36.706Z,99552.06
2023-02-18T10:48:26.236Z,99561.00
2023-02-18T10:51:20.615Z,99560.09
2023-02-18T10:54:07.989Z,99546.94
2023-02-18T10:57:00.570Z,99543.27
2023-02-18T11:00:12.772Z,99544.30
2023-02-18T11:03:22.754Z,99533.15
2023-02-18T11:06:33.889Z,99545.64
2023-02-18T11:09:35.353Z,99555.14
2023-02-18T11:12:29.318Z,99552.85
2023-02-18T11:15:16.339Z,99558.97
2023-02-18T11:18:26.694Z,99551.43
2023-02-18T11:21:36.539Z,99552.92
2023-02-18T11:24:22.940Z,99555.98
2023-02-18T11:27:21.449Z,99544.65
2023-02-18T11:30:22.088Z,99539.56
2023-02-18T11:33:16.324Z,99540.77
2023-02-18T11:36:17.196Z,99543.64
2023-02-18T11:39:07.685Z,99541.05
2023-02-18T11:42:01.943Z,99534.90
2023-02-18T11:44:52.902Z,99540.69
2023-02-18T11:47:40.062Z,99536.10
2023-02-18T11:50:30.986Z,99528.44
2023-02-18T11:53:37.912Z,99531.00
2023-02-18T11:56:24.258Z,99527.91
2023-02-18T11:59:11.114Z,99522.10
2023-02-18T12:02:06.579Z,99527.56
2023-02-18T12:05:19.982Z,99526.73
2023-02-18T12:08:09.610Z,99526.66
2023-02-18T12:11:09.832Z,99523.11
2023-02-18T12:13:58.685Z,99521.67
2023-02-18T12:16:45.491Z,99525.95
2023-02-18T12:20:03.070Z,99525.41
2023-02-18T12:23:16.886Z,99518.34
2023-02-18T12:26:09.376Z,99509.64
2023-02-18T12:29:10.247Z,99504.76
2023-02-18T12:32:24.719Z,99508.86
2023-02-18T12:35:23.628Z,99510.72
2023-02-18T12:38:25.362Z,99508.65
2023-02-18T12:41:17.975Z,99495.70
2023-02-18T12:44:36.042Z,99493.14
2023-02-18T12:47:45.620Z,99491.70
2023-02-18T12:50:52.339Z,99487.85
2023-02-18T12:53:38.578Z,99485.30
2023-02-18T12:56:43.554Z,99478.80
2023-02-18T13:00:08.118Z,99483.17
2023-02-18T13:03:22.505Z,99483.33
2023-02-18T13:06:19.331Z,99487.41
2023-02-18T13:09:11.688Z,99482.94
2023-02-18T13:12:04.080Z,99477.77
2023-02-18T13:15:06.460Z,99468.61
2023-02-18T13:17:57.155Z,99466.33
2023-02-18T13:20:49.819Z,99469.90
2023-02-18T13:23:48.158Z,99464.12
2023-02-18T13:26:35.547Z,99471.80
2023-02-18T13:29:34.621Z,99464.92
2023-02-18T13:32:50.824Z,99461.19
2023-02-18T13:36:00.563Z,99464.46
2023-02-18T13:38:53.260Z,99467.71
2023-02-18T13:41:42.963Z,99456.51
2023-02-18T13:44:29.354Z,99471.52
2023-02-18T13:47:49.686Z,99469.67
2023-02-18T13:50:42.287Z,99473.62
2023-02-18T13:53:33.033Z,99476.49
2023-02-18T13:56:35.379Z,99465.38
2023-02-18T13:59:38.136Z,99469.21
2023-02-18T14:02:25.085Z,99462.73
2023-02-18T14:05:21.864Z,99463.15
2023-02-18T14:08:14.686Z,99461.82
2023-02-18T14:11:14.273Z,99460.28
2023-02-18T14:14:00.701Z,99452.60
2023-02-18T14:17:15.256Z,99452.55
2023-02-18T14:20:01.933Z,99456.25
2023-02-18T14:22:52.885Z,99455.59
2023-02-18T14:25:42.085Z,99448.95
2023-02-18T14:28:34.413Z,99449.59
2023-02-18T14:31:36.839Z,99444.41
2023-02-18T14:34:23.845Z,99440.83
2023-02-18T14:37:28.768Z,99432.70
2023-02-18T14:40:33.789Z,99425.27
2023-02-18T14:43:54.444Z,99426.86
2023-02-18T14:46:43.636Z,99424.47
2023-02-18T14:49:50.002Z,99418.91
2023-02-18T14:52:42.576Z,99416.78
2023-02-18T14:55:33.464Z,99411.98
2023-02-18T14:58:32.504Z,99416.39
2023-02-18T15:01:28.490Z,99413.98
2023-02-18T15:04:15.840Z,99409.96
2023-02-18T15:07:05.576Z,99411.98
2023-02-18T15:09:55.012Z,99404.48
2023-02-18T15:12:42.116Z,99421.88
2023-02-18T15:15:28.606Z,99427.86
2023-02-18T15:18:23.928Z,99435.33
2023-02-18T15:21:20.646Z,99424.73
2023-02-18T15:24:08.995Z,99431.27
2023-02-18T15:27:18.971Z,99427.40
2023-02-18T15:30:33.065Z,99426.48
2023-02-18T15:33:21.768Z,99425.72
2023-02-18T15:36:15.092Z,99417.23
2023-02-18T15:39:01.520Z,99421.84
2023-02-18T15:41:53.893Z,99427.27
2023-02-18T15:44:46.780Z,99423.41
2023-02-18T15:47:33.527Z,99425.66
2023-02-18T15:50:32.931Z,99426.02
2023-02-18T15:53:21.103Z,99428.61
2023-02-18T15:56:13.960Z,99423.84
2023-02-18T15:59:10.953Z,99429.13
2023-02-18T16:02:10.988Z,99431.39
2023-02-18T16:05:05.247Z,99432.71
2023-02-18T16:07:57.293Z,99438.13
2023-02-18T16:10:56.168Z,99434.24
2023-02-18T16:13:47.968Z,99431.06
2023-02-18T16:16:39.438Z,99430.48
2023-02-18T16:19:26.213Z,99435.80
2023-02-18T16:22:44.083Z,99438.66
2023-02-18T16:25:49.183Z,99439.13
2023-02-18T16:28:35.911Z,99445.59
2023-02-18T16:31:22.940Z,99450.48
2023-02-18T16:34:09.836Z,99439.62
2023-02-18T16:37:17.068Z,99433.64
2023-02-18T16:40:05.694Z,99437.17
2023-02-18T16:42:52.786Z,99432.70
2023-02-18T16:45:43.597Z,99432.39
2023-02-18T16:48:35.777Z,99432.05
2023-02-18T16:51:26.100Z,99436.16
2023-02-18T16:54:13.691Z,99436.96
2023-02-18T16:57:03.263Z,99437.73
2023-02-18T16:59:50.335Z,99435.34
2023-02-18T17:02:37.003Z,99438.48
2023-02-18T17:05:40.320Z,99439.83
2023-02-18T17:08:27.484Z,99437.25
2023-02-18T17:11:25.841Z,99434.16
2023-02-18T17:14:18.012Z,99437.17
2023-02-18T17:17:14.046Z,99440.50
2023-02-18T17:20:00.890Z,99431.30
2023-02-18T17:22:47.481Z,99425.40
2023-02-18T17:25:38.067Z,99419.16
2023-02-18T17:28:24.379Z,99417.53
2023-02-18T17:31:19.288Z,99427.73
2023-02-18T17:34:09.287Z,99425.52
2023-02-18T17:36:55.429Z,99427.36
2023-02-18T17:39:41.806Z,99426.39
2023-02-18T17:42:28.557Z,99422.69
2023-02-18T17:45:32.060Z,99421.89
2023-02-18T17:48:18.995Z,99422.63
2023-02-18T17:51:09.218Z,99421.52
2023-02-18T17:53:55.870Z,99424.96
2023-02-18T17:56:43.219Z,99422.17
2023-02-18T17:59:32.967Z,99417.92
2023-02-18T18:02:27.209Z,99422.13
2023-02-18T18:05:17.921Z,99423.33
2023-02-18T18:08:05.808Z,99417.79
2023-02-18T18:11:01.130Z,99408.23
2023-02-18T18:13:48.356Z,99403.69
2023-02-18T18:16:34.901Z,99396.62
2023-02-18T18:19:22.755Z,99394.49
2023-02-18T18:22:11.517Z,99389.58
2023-02-18T18:25:20.509Z,99387.48
2023-02-18T18:28:08.273Z,99387.17
2023-02-18T18:30:56.783Z,99390.74
2023-02-18T18:33:49.024Z,99393.19
2023-02-18T18:36:35.586Z,99395.07
2023-02-18T18:39:22.145Z,99393.69
2023-02-18T18:42:12.084Z,99388.04
2023-02-18T18:44:58.604Z,99384.73
2023-02-18T18:47:46.339Z,99371.88
2023-02-18T18:50:39.269Z,99369.62
2023-02-18T18:53:29.874Z,99374.35
2023-02-18T18:56:16.369Z,99374.39
2023-02-18T18:59:04.111Z,99371.59
2023-02-18T19:01:51.981Z,99375.63
2023-02-18T19:04:38.268Z,99394.98
2023-02-18T19:07:24.638Z,99398.74
2023-02-18T19:10:10.936Z,99400.98
2023-02-18T19:13:11.423Z,99408.88
2023-02-18T19:16:19.328Z,99422.02
2023-02-18T19:19:05.598Z,99426.30
2023-02-18T19:21:53.382Z,99430.94
2023-02-18T19:24:39.863Z,99437.11
2023-02-18T19:27:26.196Z,99437.34
2023-02-18T19:33:14.157Z,99443.31
2023-02-18T19:36:00.582Z,99445.90
2023-02-18T19:38:47.220Z,99441.35
2023-02-18T19:41:33.719Z,99438.04
2023-02-18T19:44:21.770Z,99441.58
2023-02-18T19:47:08.107Z,99448.64
2023-02-18T19:49:54.909Z,99458.89
2023-02-18T19:52:41.806Z,99467.77
2023-02-18T19:55:28.155Z,99478.13
2023-02-18T19:58:14.726Z,99487.17
2023-02-18T20:01:01.149Z,99490.34
2023-02-18T20:03:47.644Z,99490.15
2023-02-18T20:06:34.443Z,99488.36
2023-02-18T20:09:21.121Z,99495.86
2023-02-18T20:12:09.936Z,99508.94
2023-02-18T20:14:56.486Z,99518.14
2023-02-18T20:17:43.318Z,99515.95
2023-02-18T20:20:30.024Z,99522.86
2023-02-18T20:23:16.558Z,99530.65
2023-02-18T20:26:08.117Z,99529.34
2023-02-18T20:28:54.412Z,99526.48
2023-02-18T20:31:42.717Z,99526.09
2023-02-18T20:34:29.810Z,99529.00
2023-02-18T20:37:17.282Z,99527.27
2023-02-18T20:40:04.244Z,99534.83
2023-02-18T20:42:50.469Z,99535.55
2023-02-18T20:45:36.925Z,99541.59
2023-02-18T20:48:23.556Z,99537.19
2023-02-18T20:51:13.487Z,99544.55
2023-02-18T20:54:00.836Z,99546.27
2023-02-18T20:56:49.196Z,99550.73
2023-02-18T20:59:36.007Z,99557.38
2023-02-18T21:02:22.427Z,99557.50
2023-02-18T21:05:09.304Z,99560.61
2023-02-18T21:07:57.148Z,99562.14
2023-02-18T21:10:43.418Z,99566.27
2023-02-18T21:13:30.254Z,99567.73
2023-02-18T21:16:18.437Z,99571.25
2023-02-18T21:19:07.342Z,99569.17
2023-02-18T21:21:53.560Z,99573.69
2023-02-18T21:24:40.188Z,99574.05
2023-02-18T21:27:26.945Z,99584.67
2023-02-18T21:30:13.384Z,99584.84
2023-02-18T21:33:00.097Z,99581.33
2023-02-18T21:35:49.128Z,99588.30
2023-02-18T21:38:35.289Z,99591.97
2023-02-18T21:41:22.182Z,99597.55
2023-02-18T21:44:09.747Z,99600.35
2023-02-18T21:46:56.478Z,99604.61
2023-02-18T21:49:43.149Z,99607.17
2023-02-18T21:52:29.856Z,99613.91
2023-02-18T21:55:18.506Z,99618.06
2023-02-18T21:58:04.966Z,99621.60
2023-02-18T22:00:58.355Z,99626.45
2023-02-18T22:03:44.664Z,99638.59
2023-02-18T22:06:31.190Z,99643.16
2023-02-18T22:09:18.537Z,99654.52
2023-02-18T22:12:07.446Z,99661.63
2023-02-18T22:14:53.712Z,99668.01
2023-02-18T22:17:40.362Z,99668.77
2023-02-18T22:20:27.463Z,99666.21
2023-02-18T22:23:14.135Z,99667.48
2023-02-18T22:26:08.807Z,99677.54
2023-02-18T22:28:59.103Z,99679.68
2023-02-18T22:31:47.018Z,99686.90
2023-02-18T22:34:33.702Z,99690.56
2023-02-18T22:41:42.559Z,99697.73
2023-02-18T22:44:29.342Z,99700.09
2023-02-18T22:47:15.864Z,99700.31
2023-02-18T22:50:02.855Z,99698.84
2023-02-18T22:52:49.086Z,99707.88
2023-02-18T22:55:35.764Z,99709.58
2023-02-18T23:02:31.546Z,99709.88
2023-02-18T23:05:17.912Z,99710.86
2023-02-18T23:08:06.177Z,99701.09
2023-02-18T23:11:03.953Z,99712.88
2023-02-18T23:14:09.651Z,99721.00
2023-02-18T23:17:13.680Z,99728.31
2023-02-18T23:19:59.974Z,99729.82
2023-02-18T23:22:46.559Z,99736.09
2023-02-18T23:25:33.173Z,99742.26
2023-02-18T23:28:19.849Z,99745.46
2023-02-18T23:31:06.628Z,99747.61
2023-02-18T23:33:56.248Z,99745.20
2023-02-18T23:36:43.238Z,99742.73
2023-02-18T23:39:29.768Z,99744.17
2023-02-18T23:42:17.040Z,99752.91
2023-02-18T23:45:03.642Z,99758.59
2023-02-18T23:47:50.911Z,99759.78
2023-02-18T23:50:37.437Z,99757.48
2023-02-18T23:53:28.937Z,99758.70
2023-02-18T23:56:18.351Z,99760.27
2023-02-18T23:59:05.888Z,99762.83
